Time;durP1;ratioP1;P1;durP2;ratioP2;P2;SDS_P1;SDS_P2;PMS_P1;PMS_P2;Temp;Humidity;BMP_temperature;BMP_pressure;BME280_temperature;BME280_humidity;BME280_pressure;Samples;Min_cycle;Max_cycle;Signal;HPM_P1;HPM_P2
2023/08/10 00:02:22;;;;;;;379.88;200.65;;;;;;;16.83;100.00;100925.00;5034377;28;20033;-81
2023/08/10 00:04:48;;;;;;;382.08;201.68;;;;;;;16.82;100.00;100929.59;5054395;28;20167;-80
2023/08/10 00:07:14;;;;;;;373.33;197.27;;;;;;;16.72;100.00;100918.31;5052488;28;20232;-80
2023/08/10 00:09:42;;;;;;;378.15;200.23;;;;;;;16.75;100.00;100936.06;5069087;28;20032;-82
2023/08/10 00:12:10;;;;;;;374.17;198.35;;;;;;;16.79;100.00;100918.34;5041163;28;20032;-80
2023/08/10 00:14:36;;;;;;;377.98;200.10;;;;;;;16.81;100.00;100916.25;5039692;28;20033;-80
2023/08/10 00:17:02;;;;;;;377.13;199.57;;;;;;;16.78;100.00;100916.69;5072314;28;20063;-80
2023/08/10 00:19:28;;;;;;;377.02;200.15;;;;;;;16.65;100.00;100921.06;5073399;28;20105;-80
2023/08/10 00:21:53;;;;;;;381.55;202.45;;;;;;;16.49;100.00;100925.06;5053101;28;20087;-80
2023/08/10 00:24:19;;;;;;;375.77;199.48;;;;;;;16.40;100.00;100917.31;5035945;28;20033;-80
2023/08/10 00:26:47;;;;;;;375.77;198.90;;;;;;;16.29;100.00;100909.81;5028223;28;20033;-80
2023/08/10 00:29:12;;;;;;;374.52;198.55;;;;;;;16.11;100.00;100900.44;5056027;28;20182;-79
2023/08/10 00:31:38;;;;;;;371.23;197.40;;;;;;;16.05;100.00;100891.25;5071837;28;20426;-80
2023/08/10 00:34:04;;;;;;;371.05;197.52;;;;;;;16.22;100.00;100905.25;5071583;28;20029;-82
2023/08/10 00:36:29;;;;;;;372.13;198.90;;;;;;;16.23;100.00;100898.78;5056563;28;20045;-81
2023/08/10 00:38:56;;;;;;;368.33;197.05;;;;;;;16.31;100.00;100903.16;5038064;28;20548;-81
2023/08/10 00:41:21;;;;;;;369.73;197.43;;;;;;;16.25;100.00;100880.41;5052615;28;20118;-80
2023/08/10 00:43:48;;;;;;;372.05;198.55;;;;;;;16.25;100.00;100885.00;5072859;28;20059;-82
2023/08/10 00:46:17;;;;;;;371.48;198.52;;;;;;;16.15;100.00;100877.28;5039206;28;20039;-80
2023/08/10 00:48:43;;;;;;;364.38;195.30;;;;;;;16.00;100.00;100872.06;5056398;28;20067;-80
2023/08/10 00:51:08;;;;;;;365.02;195.80;;;;;;;15.82;100.00;100864.56;5073035;28;20056;-81
2023/08/10 00:53:34;;;;;;;354.48;191.13;;;;;;;15.73;100.00;100868.50;5050375;28;20486;-81
2023/08/10 00:56:01;;;;;;;361.10;193.90;;;;;;;15.61;100.00;100876.41;5052345;28;20045;-80
2023/08/10 00:58:30;;;;;;;364.10;195.45;;;;;;;15.55;100.00;100882.63;5055235;28;20090;-79
2023/08/10 01:00:56;;;;;;;359.67;194.35;;;;;;;15.47;100.00;100868.44;5071768;28;20052;-80
2023/08/10 01:03:22;;;;;;;354.05;191.70;;;;;;;15.25;100.00;100840.69;5071936;28;20497;-79
2023/08/10 01:05:56;;;;;;;360.90;194.18;;;;;;;15.28;100.00;100864.66;5070680;28;20075;-80
2023/08/10 01:08:36;;;;;;;362.95;196.30;;;;;;;15.03;100.00;100854.38;5053059;28;20044;-79
2023/08/10 01:11:34;;;;;;;359.48;195.10;;;;;;;15.08;100.00;100875.41;5036239;28;20502;-79
2023/08/10 01:14:13;;;;;;;357.50;194.43;;;;;;;15.03;100.00;100864.34;5026929;28;20040;-80
2023/08/10 01:16:41;;;;;;;355.50;194.23;;;;;;;15.00;100.00;100865.56;5034443;28;20040;-79
2023/08/10 01:19:26;;;;;;;352.30;192.15;;;;;;;15.07;100.00;100874.56;5053736;28;20036;-79
2023/08/10 01:22:20;;;;;;;354.88;193.18;;;;;;;15.20;100.00;100872.97;5070228;28;20135;-79
2023/08/10 01:25:04;;;;;;;358.00;196.48;;;;;;;15.33;100.00;100873.81;5015856;28;20049;-80
2023/08/10 01:27:30;;;;;;;356.83;193.75;;;;;;;15.42;100.00;100863.63;5053133;28;20395;-83
2023/08/10 01:30:00;;;;;;;361.20;196.38;;;;;;;15.52;100.00;100869.50;5048469;28;20903;-82
2023/08/10 01:32:29;;;;;;;361.27;196.13;;;;;;;15.66;100.00;100867.63;5053199;28;20048;-80
2023/08/10 01:34:59;;;;;;;351.70;191.93;;;;;;;15.69;100.00;100850.16;5054420;28;20040;-80
2023/08/10 01:37:25;;;;;;;365.88;198.43;;;;;;;15.87;100.00;100849.53;5070445;28;20123;-80
2023/08/10 01:39:51;;;;;;;367.25;198.35;;;;;;;15.98;100.00;100838.06;5040673;28;20436;-80
2023/08/10 01:42:20;;;;;;;366.40;198.00;;;;;;;16.09;100.00;100836.59;5031065;28;20037;-80
2023/08/10 01:44:45;;;;;;;370.42;199.07;;;;;;;16.16;100.00;100824.69;5066240;28;20119;-80
2023/08/10 01:47:42;;;;;;;370.85;199.13;;;;;;;16.22;100.00;100826.56;5054283;28;20041;-80
2023/08/10 01:50:08;;;;;;;371.00;199.02;;;;;;;16.29;100.00;100826.53;5070119;28;20036;-80
2023/08/10 01:52:39;;;;;;;368.92;197.45;;;;;;;16.18;100.00;100809.03;5071516;28;20039;-80
2023/08/10 01:55:08;;;;;;;372.80;198.30;;;;;;;16.31;100.00;100819.03;5050366;28;20056;-81
2023/08/10 01:57:36;;;;;;;369.88;197.65;;;;;;;16.29;100.00;100814.88;5037641;28;21788;-80
2023/08/10 02:00:02;;;;;;;379.55;201.13;;;;;;;16.23;100.00;100808.41;5023384;28;20472;-81
2023/08/10 02:02:28;;;;;;;367.92;196.10;;;;;;;15.97;100.00;100787.59;5037870;28;20493;-80
2023/08/10 02:04:54;;;;;;;367.77;196.10;;;;;;;16.03;100.00;100803.00;5053203;28;20494;-80
2023/08/10 02:07:25;;;;;;;372.95;198.10;;;;;;;16.04;100.00;100821.78;5035972;28;20043;-81
2023/08/10 02:09:51;;;;;;;368.27;196.57;;;;;;;15.92;100.00;100806.34;5037173;28;20097;-80
2023/08/10 02:12:16;;;;;;;366.45;196.25;;;;;;;15.84;100.00;100801.97;5070847;28;20041;-80
2023/08/10 02:14:42;;;;;;;367.70;197.07;;;;;;;15.83;100.00;100798.44;5052825;28;20540;-81
2023/08/10 02:17:11;;;;;;;363.70;195.45;;;;;;;15.84;100.00;100796.56;5054305;28;20485;-80
2023/08/10 02:19:36;;;;;;;362.27;194.70;;;;;;;15.90;100.00;100794.88;5041688;28;20037;-79
2023/08/10 02:22:03;;;;;;;365.33;196.52;;;;;;;15.96;100.00;100796.78;5067690;28;20081;-81
2023/08/10 02:24:29;;;;;;;367.40;197.25;;;;;;;15.69;100.00;100742.56;5070126;28;20107;-79
2023/08/10 02:26:55;;;;;;;372.10;198.57;;;;;;;16.00;100.00;100785.28;5069702;28;20040;-80
2023/08/10 02:29:21;;;;;;;365.67;196.48;;;;;;;15.94;100.00;100756.28;5039915;28;20129;-80
2023/08/10 02:31:47;;;;;;;364.38;195.55;;;;;;;16.03;100.00;100770.47;5074502;28;20043;-79
2023/08/10 02:34:15;;;;;;;365.20;195.98;;;;;;;16.02;100.00;100756.06;5057191;28;20421;-80
2023/08/10 02:36:41;;;;;;;367.75;197.38;;;;;;;16.17;100.00;100761.25;5056746;28;20041;-79
2023/08/10 02:39:06;;;;;;;366.17;197.23;;;;;;;16.15;100.00;100752.50;5072464;28;20440;-80
2023/08/10 02:41:32;;;;;;;368.77;197.68;;;;;;;16.27;100.00;100760.81;5057729;28;20482;-80
2023/08/10 02:43:58;;;;;;;369.15;199.73;;;;;;;16.33;100.00;100754.53;5074076;28;20039;-80
2023/08/10 02:46:26;;;;;;;367.80;198.35;;;;;;;16.40;100.00;100755.31;5074060;28;20097;-80
2023/08/10 02:48:52;;;;;;;370.27;199.32;;;;;;;16.47;100.00;100750.72;5055270;28;20044;-80
2023/08/10 02:51:18;;;;;;;371.95;200.05;;;;;;;16.55;100.00;100754.25;5041878;28;20548;-80
2023/08/10 02:53:45;;;;;;;370.55;198.55;;;;;;;16.43;100.00;100721.50;5054983;28;20075;-81
2023/08/10 02:56:11;;;;;;;370.42;198.57;;;;;;;16.60;100.00;100744.41;5057872;28;20067;-80
2023/08/10 02:58:37;;;;;;;371.23;199.25;;;;;;;16.40;100.00;100725.47;5073276;28;20461;-80
2023/08/10 03:01:08;;;;;;;371.48;198.88;;;;;;;16.51;100.00;100742.97;5056780;28;20767;-80
2023/08/10 03:03:37;;;;;;;370.13;199.25;;;;;;;16.48;100.00;100736.13;5056478;28;20143;-80
2023/08/10 03:06:06;;;;;;;366.33;196.60;;;;;;;16.49;100.00;100739.66;5040107;28;20029;-80
2023/08/10 03:08:31;;;;;;;371.33;199.02;;;;;;;16.51;100.00;100742.97;5054944;28;20082;-81
2023/08/10 03:10:57;;;;;;;372.90;200.07;;;;;;;16.54;100.00;100753.41;5072413;28;20491;-80
2023/08/10 03:13:22;;;;;;;372.13;199.77;;;;;;;16.59;100.00;100764.47;5040900;28;20032;-80
2023/08/10 03:15:48;;;;;;;370.13;198.70;;;;;;;16.52;100.00;100739.22;5074655;28;20040;-80
2023/08/10 03:18:14;;;;;;;374.77;200.75;;;;;;;16.57;100.00;100750.28;5055071;28;20040;-81
2023/08/10 03:20:39;;;;;;;371.17;199.63;;;;;;;16.54;100.00;100744.41;5051966;28;20042;-82
2023/08/10 03:23:05;;;;;;;368.38;198.27;;;;;;;16.47;100.00;100730.91;5039182;28;20041;-82
2023/08/10 03:25:32;;;;;;;370.45;199.18;;;;;;;16.44;100.00;100736.75;5057848;28;20475;-79
2023/08/10 03:27:58;;;;;;;376.65;199.32;;;;;;;16.26;100.00;100708.41;5074137;28;20037;-80
2023/08/10 03:30:23;;;;;;;368.73;197.50;;;;;;;16.41;100.00;100723.63;5074158;28;20032;-80
2023/08/10 03:32:49;;;;;;;366.70;196.10;;;;;;;16.48;100.00;100724.41;5074453;28;20116;-79
2023/08/10 03:35:15;;;;;;;367.23;197.05;;;;;;;16.57;100.00;100725.84;5075467;28;20024;-80
2023/08/10 03:37:43;;;;;;;370.42;198.50;;;;;;;16.63;100.00;100722.25;5075034;28;20041;-81
2023/08/10 03:40:09;;;;;;;368.48;197.43;;;;;;;16.72;100.00;100725.53;5052811;28;20139;-80
2023/08/10 03:42:34;;;;;;;365.77;195.98;;;;;;;16.70;100.00;100704.06;5054544;28;20089;-80
2023/08/10 03:45:00;;;;;;;362.83;194.18;;;;;;;16.80;100.00;100713.63;5054354;28;20040;-81
2023/08/10 03:47:26;;;;;;;366.77;195.85;;;;;;;16.77;100.00;100708.59;5035421;28;20113;-80
2023/08/10 03:49:51;;;;;;;365.27;196.02;;;;;;;16.67;100.00;100693.63;5052501;28;20033;-80
2023/08/10 03:52:17;;;;;;;366.55;195.60;;;;;;;16.79;100.00;100717.41;5054170;28;20506;-80
2023/08/10 03:54:42;;;;;;;366.35;196.50;;;;;;;16.77;100.00;100716.75;5055750;28;20029;-80
2023/08/10 03:57:08;;;;;;;363.00;194.38;;;;;;;16.70;100.00;100703.22;5075001;28;20029;-80
2023/08/10 03:59:34;;;;;;;370.52;198.05;;;;;;;16.74;100.00;100714.47;5071169;28;20025;-79
2023/08/10 04:01:59;;;;;;;371.13;198.25;;;;;;;16.76;100.00;100699.63;5035876;28;20040;-80
2023/08/10 04:04:25;;;;;;;368.05;197.13;;;;;;;16.74;100.00;100700.91;5039908;28;20040;-80
2023/08/10 04:06:51;;;;;;;364.42;195.27;;;;;;;16.70;100.00;100687.75;5055287;28;20090;-81
2023/08/10 04:09:16;;;;;;;368.48;197.18;;;;;;;16.71;100.00;100694.84;5055999;28;20478;-81
2023/08/10 04:11:45;;;;;;;368.27;196.80;;;;;;;16.67;100.00;100699.06;5072276;28;20403;-80
2023/08/10 04:14:11;;;;;;;364.63;195.82;;;;;;;16.62;100.00;100679.88;5039924;28;20032;-79
2023/08/10 04:16:36;;;;;;;366.73;196.52;;;;;;;16.73;100.00;100688.38;5072187;28;20047;-81
2023/08/10 04:19:02;;;;;;;369.08;197.50;;;;;;;16.77;100.00;100681.44;5038173;28;20046;-79
2023/08/10 04:21:28;;;;;;;370.00;198.35;;;;;;;16.84;100.00;100680.38;5073473;28;20025;-79
2023/08/10 04:23:53;;;;;;;365.02;195.57;;;;;;;16.86;100.00;100680.19;5070870;28;20809;-79
2023/08/10 04:26:19;;;;;;;368.10;196.88;;;;;;;16.80;100.00;100679.16;5053057;28;20052;-81
2023/08/10 04:28:44;;;;;;;372.35;199.95;;;;;;;16.61;100.00;100670.06;5039221;28;20031;-80
2023/08/10 04:31:13;;;;;;;373.35;199.98;;;;;;;16.60;100.00;100683.84;5052870;28;20075;-80
2023/08/10 04:33:40;;;;;;;370.58;199.55;;;;;;;16.45;100.00;100676.00;5055669;28;20062;-79
2023/08/10 04:36:07;;;;;;;369.23;198.38;;;;;;;16.29;100.00;100680.03;5034700;28;20140;-79
2023/08/10 04:38:34;;;;;;;371.23;200.35;;;;;;;16.17;100.00;100677.16;5051051;28;20467;-79
2023/08/10 04:41:05;;;;;;;366.70;197.75;;;;;;;16.16;100.00;100675.47;5057440;28;20070;-79
2023/08/10 04:43:33;;;;;;;367.10;198.25;;;;;;;16.16;100.00;100686.34;5056202;28;20386;-80
2023/08/10 04:45:59;;;;;;;368.23;198.43;;;;;;;16.11;100.00;100675.28;5070351;28;20041;-80
2023/08/10 04:48:25;;;;;;;369.77;198.73;;;;;;;16.03;100.00;100673.66;5072256;28;20036;-79
2023/08/10 04:50:51;;;;;;;368.95;199.60;;;;;;;15.97;100.00;100684.53;5056081;28;20029;-79
2023/08/10 04:53:17;;;;;;;363.17;197.05;;;;;;;15.92;100.00;100697.91;5056577;28;20024;-79
2023/08/10 04:55:43;;;;;;;364.85;198.02;;;;;;;15.88;100.00;100691.22;5072723;28;20033;-79
2023/08/10 04:58:11;;;;;;;368.83;200.45;;;;;;;15.86;100.00;100693.34;5072083;28;20033;-79
2023/08/10 05:00:36;;;;;;;364.75;198.43;;;;;;;15.85;100.00;100694.34;5072619;28;20021;-79
2023/08/10 05:03:02;;;;;;;364.13;198.18;;;;;;;15.82;100.00;100679.34;5055898;28;20024;-80
2023/08/10 05:05:27;;;;;;;364.98;199.05;;;;;;;15.90;100.00;100687.25;5072405;28;20029;-79
2023/08/10 05:07:53;;;;;;;366.92;199.43;;;;;;;15.85;100.00;100691.66;5073165;28;20465;-79
2023/08/10 05:10:19;;;;;;;367.55;200.43;;;;;;;15.82;100.00;100687.47;5039045;28;20044;-79
2023/08/10 05:12:44;;;;;;;364.70;198.93;;;;;;;15.65;100.00;100664.56;5055949;28;20490;-79
2023/08/10 05:15:11;;;;;;;365.65;199.27;;;;;;;15.53;100.00;100658.94;5072392;28;20025;-79
2023/08/10 05:17:39;;;;;;;362.75;197.90;;;;;;;15.52;100.00;100681.66;5070843;28;20054;-80
2023/08/10 05:20:11;;;;;;;361.45;197.77;;;;;;;15.45;100.00;100678.97;5070729;28;20067;-79
2023/08/10 05:22:41;;;;;;;356.70;195.68;;;;;;;15.42;100.00;100673.97;5055838;28;20032;-79
2023/08/10 05:25:08;;;;;;;361.88;198.90;;;;;;;15.33;100.00;100673.34;5055305;28;20044;-80
2023/08/10 05:27:38;;;;;;;360.55;198.23;;;;;;;15.30;100.00;100667.53;5038433;28;20028;-80
2023/08/10 05:30:08;;;;;;;363.45;198.95;;;;;;;15.37;100.00;100663.78;5069647;28;20025;-81
2023/08/10 05:32:36;;;;;;;358.52;197.32;;;;;;;15.36;100.00;100651.25;5037810;28;20547;-80
2023/08/10 05:35:03;;;;;;;357.48;196.88;;;;;;;15.45;100.00;100660.00;5052934;28;20028;-80
2023/08/10 05:37:30;;;;;;;359.83;198.40;;;;;;;15.45;100.00;100654.56;5054419;28;20082;-79
2023/08/10 05:39:56;;;;;;;356.58;196.57;;;;;;;15.44;100.00;100663.75;5071073;28;20506;-79
2023/08/10 05:42:22;;;;;;;357.27;197.30;;;;;;;15.47;100.00;100657.09;5071108;28;20036;-79
2023/08/10 05:44:47;;;;;;;357.00;196.00;;;;;;;15.57;100.00;100669.16;5051175;28;20033;-80
2023/08/10 05:47:13;;;;;;;360.52;197.95;;;;;;;15.63;100.00;100661.22;5064754;28;20032;-80
2023/08/10 05:49:38;;;;;;;354.63;195.10;;;;;;;15.76;100.00;100655.81;5069939;28;20037;-79
2023/08/10 05:52:04;;;;;;;359.50;197.55;;;;;;;15.81;100.00;100643.28;5037112;28;20391;-79
2023/08/10 05:54:30;;;;;;;359.80;197.25;;;;;;;16.25;100.00;100659.81;5058208;28;20042;-79
2023/08/10 05:56:55;;;;;;;369.15;199.93;;;;;;;16.43;100.00;100656.38;5050640;28;20787;-80
2023/08/10 05:59:21;;;;;;;363.67;198.15;;;;;;;16.52;100.00;100638.78;5038048;28;20075;-80
2023/08/10 06:01:47;;;;;;;365.65;198.13;;;;;;;16.66;100.00;100648.50;5070318;28;20028;-81
2023/08/10 06:04:14;;;;;;;364.20;196.65;;;;;;;16.75;100.00;100637.38;5040229;28;20090;-79
2023/08/10 06:06:39;;;;;;;367.83;198.55;;;;;;;16.87;100.00;100646.53;5052949;28;20459;-81
2023/08/10 06:09:08;;;;;;;365.25;196.82;;;;;;;16.98;100.00;100653.13;5040516;28;20079;-80
2023/08/10 06:11:33;;;;;;;366.63;196.70;;;;;;;17.11;100.00;100663.91;5041792;28;20029;-79
2023/08/10 06:13:59;;;;;;;362.63;195.23;;;;;;;17.23;100.00;100661.31;5055980;28;20047;-82
2023/08/10 06:16:25;;;;;;;363.38;195.38;;;;;;;17.28;100.00;100662.31;5041252;28;20043;-80
2023/08/10 06:18:51;;;;;;;370.02;198.00;;;;;;;17.22;100.00;100654.19;5069760;28;20029;-81
2023/08/10 06:21:18;;;;;;;361.85;193.93;;;;;;;17.13;100.00;100653.66;5055412;28;20056;-80
2023/08/10 06:23:50;;;;;;;367.42;196.80;;;;;;;17.06;100.00;100661.00;5056063;28;20040;-79
2023/08/10 06:26:15;;;;;;;365.08;196.00;;;;;;;17.07;100.00;100644.50;5037653;28;20079;-79
2023/08/10 06:28:43;;;;;;;365.10;195.13;;;;;;;17.51;100.00;100656.22;5075493;28;20483;-81
2023/08/10 06:31:12;;;;;;;368.30;196.65;;;;;;;17.86;100.00;100643.97;5056632;28;20525;-79
2023/08/10 06:33:37;;;;;;;370.02;196.45;;;;;;;18.13;100.00;100660.84;5058096;28;20475;-80
2023/08/10 06:36:06;;;;;;;367.35;195.30;;;;;;;18.04;100.00;100614.03;5042175;28;20036;-79
2023/08/10 06:38:35;;;;;;;371.15;196.07;;;;;;;18.61;100.00;100651.81;5056284;28;20036;-81
2023/08/10 06:41:06;;;;;;;370.85;196.55;;;;;;;18.71;100.00;100659.41;5041274;28;20063;-81
2023/08/10 06:43:31;;;;;;;368.77;194.52;;;;;;;18.92;100.00;100658.94;5041754;28;20372;-81
2023/08/10 06:45:58;;;;;;;369.23;194.65;;;;;;;18.86;100.00;100655.22;5038675;28;20032;-81
2023/08/10 06:48:24;;;;;;;365.13;192.25;;;;;;;18.73;100.00;100657.28;5017926;28;20032;-82
2023/08/10 06:50:49;;;;;;;368.48;193.27;;;;;;;18.92;100.00;100666.25;5039856;28;20039;-80
2023/08/10 06:53:15;;;;;;;372.48;193.25;;;;;;;19.46;100.00;100670.59;5071889;28;20070;-80
2023/08/10 06:55:42;;;;;;;367.25;191.52;;;;;;;19.72;100.00;100663.88;5075311;28;20506;-80
2023/08/10 06:58:08;;;;;;;367.58;190.98;;;;;;;20.02;100.00;100672.94;5054596;28;20037;-80
2023/08/10 07:00:35;;;;;;;365.98;189.90;;;;;;;19.96;100.00;100663.84;5048168;28;20040;-82
2023/08/10 07:03:02;;;;;;;371.48;192.35;;;;;;;19.74;100.00;100659.00;5022102;28;20029;-82
2023/08/10 07:05:28;;;;;;;374.77;194.57;;;;;;;19.54;100.00;100650.31;5054589;28;20033;-82
2023/08/10 07:07:57;;;;;;;370.10;192.20;;;;;;;19.52;100.00;100647.00;5038450;28;20033;-80
2023/08/10 07:10:26;;;;;;;374.25;193.27;;;;;;;20.40;100.00;100658.69;5054034;28;20111;-80
2023/08/10 07:12:51;;;;;;;379.90;194.65;;;;;;;21.86;94.12;100659.81;5037963;28;20136;-82
2023/08/10 07:15:17;;;;;;;375.70;192.45;;;;;;;22.02;90.89;100663.59;5055419;28;20546;-83
2023/08/10 07:17:43;;;;;;;371.80;190.23;;;;;;;21.12;94.08;100657.28;5075630;28;20031;-81
2023/08/10 07:20:10;;;;;;;371.02;189.82;;;;;;;20.26;97.06;100660.06;5074678;28;20123;-81
2023/08/10 07:22:36;;;;;;;368.50;189.85;;;;;;;19.75;100.00;100657.91;5058923;28;20039;-79
2023/08/10 07:25:07;;;;;;;371.45;190.85;;;;;;;19.70;100.00;100646.91;5037921;28;20090;-79
2023/08/10 07:27:35;;;;;;;363.13;186.52;;;;;;;19.80;100.00;100649.03;5056658;28;20049;-79
2023/08/10 07:30:03;;;;;;;368.42;188.80;;;;;;;20.61;99.39;100647.16;5056215;28;20040;-79
2023/08/10 07:32:29;;;;;;;366.67;189.32;;;;;;;20.24;99.13;100635.72;5073920;28;20028;-79
2023/08/10 07:34:54;;;;;;;364.25;188.88;;;;;;;19.98;100.00;100640.69;5074008;28;20042;-81
2023/08/10 07:37:24;;;;;;;365.83;188.25;;;;;;;19.93;100.00;100631.56;5035969;28;20059;-82
2023/08/10 07:39:50;;;;;;;367.58;189.32;;;;;;;19.92;100.00;100624.44;5038322;28;20032;-82
2023/08/10 07:42:16;;;;;;;368.70;190.18;;;;;;;20.12;100.00;100629.50;5057997;28;20406;-81
2023/08/10 07:44:42;;;;;;;365.55;188.40;;;;;;;20.19;99.82;100624.72;5072897;28;20482;-81
2023/08/10 07:47:08;;;;;;;367.23;188.65;;;;;;;20.10;100.00;100639.81;5074206;28;20045;-78
2023/08/10 07:49:33;;;;;;;360.63;186.68;;;;;;;19.91;100.00;100639.16;5039439;28;20467;-81
2023/08/10 07:52:05;;;;;;;367.60;189.27;;;;;;;19.69;100.00;100617.97;5039175;28;20067;-80
2023/08/10 07:54:34;;;;;;;364.55;188.13;;;;;;;19.65;100.00;100629.56;5072991;28;20032;-81
2023/08/10 07:57:02;;;;;;;367.35;188.10;;;;;;;19.65;100.00;100640.47;5040704;28;20544;-80
2023/08/10 07:59:28;;;;;;;365.90;187.57;;;;;;;19.52;100.00;100631.47;5040576;28;20029;-79
2023/08/10 08:01:54;;;;;;;365.15;188.90;;;;;;;19.37;100.00;100638.44;5040899;28;20123;-79
2023/08/10 08:04:19;;;;;;;365.35;188.45;;;;;;;19.33;100.00;100617.13;5073367;28;20028;-79
2023/08/10 08:06:45;;;;;;;368.25;189.43;;;;;;;19.29;100.00;100624.13;5073542;28;20033;-79
2023/08/10 08:09:12;;;;;;;364.52;188.45;;;;;;;19.32;100.00;100609.19;5073108;28;20035;-79
2023/08/10 08:11:39;;;;;;;364.40;188.55;;;;;;;19.49;100.00;100621.03;5056997;28;20493;-80
2023/08/10 08:14:05;;;;;;;360.00;186.75;;;;;;;19.66;100.00;100620.28;5056135;28;20035;-80
2023/08/10 08:16:31;;;;;;;372.02;191.90;;;;;;;19.82;100.00;100608.69;5055556;28;20037;-82
2023/08/10 08:18:57;;;;;;;368.33;189.90;;;;;;;20.07;100.00;100611.09;5026485;28;20463;-81
2023/08/10 08:21:26;;;;;;;363.88;187.75;;;;;;;19.93;100.00;100572.38;5042679;28;20040;-80
2023/08/10 08:23:56;;;;;;;368.43;190.47;;;;;;;20.21;100.00;100612.47;5057088;28;20119;-80
2023/08/10 08:26:26;;;;;;;368.00;188.75;;;;;;;20.11;99.99;100598.66;5040087;28;20379;-83
2023/08/10 08:28:55;;;;;;;366.13;188.30;;;;;;;20.10;100.00;100601.59;5022094;28;20029;-86
2023/08/10 08:31:21;;;;;;;365.73;187.88;;;;;;;20.18;99.96;100601.22;5037194;28;20429;-85
2023/08/10 08:33:47;;;;;;;365.05;187.82;;;;;;;20.22;98.90;100580.56;5036649;28;20070;-84
2023/08/10 08:36:13;;;;;;;528.22;261.08;;;;;;;20.34;99.23;100577.78;5039523;28;20047;-85
2023/08/10 08:38:39;;;;;;;488.23;239.13;;;;;;;20.43;97.31;100604.44;5055537;28;20044;-85
2023/08/10 08:41:09;;;;;;;477.95;235.30;;;;;;;20.47;97.39;100590.28;5056058;28;20036;-85
2023/08/10 08:43:36;;;;;;;471.42;231.77;;;;;;;20.71;96.66;100591.84;5056139;28;20041;-86
2023/08/10 08:46:06;;;;;;;462.63;227.70;;;;;;;20.84;95.81;100596.16;5056356;28;20608;-83
2023/08/10 08:48:33;;;;;;;457.88;226.18;;;;;;;20.82;96.23;100601.84;5056542;28;20033;-83
2023/08/10 08:51:04;;;;;;;446.60;221.35;;;;;;;20.76;97.49;100591.94;5039813;28;20048;-83
2023/08/10 08:53:31;;;;;;;444.40;221.13;;;;;;;20.67;96.28;100576.19;5055932;28;20044;-83
2023/08/10 08:55:57;;;;;;;437.13;217.15;;;;;;;20.82;96.99;100590.09;5039334;28;20090;-83
2023/08/10 08:58:23;;;;;;;434.85;216.05;;;;;;;21.11;94.94;100565.41;5056108;28;20094;-83
2023/08/10 09:00:53;;;;;;;434.33;214.43;;;;;;;21.51;93.93;100587.94;5072681;28;20028;-83
2023/08/10 09:03:20;;;;;;;436.48;216.57;;;;;;;21.55;93.66;100581.94;5039483;28;20090;-84
2023/08/10 09:05:46;;;;;;;429.33;213.10;;;;;;;21.52;93.43;100595.03;5038817;28;20098;-83
2023/08/10 09:08:14;;;;;;;426.27;211.10;;;;;;;21.76;92.03;100591.25;5039118;28;20036;-83
2023/08/10 09:10:40;;;;;;;425.00;209.60;;;;;;;23.69;82.22;100572.97;5055698;28;20025;-83
2023/08/10 09:13:11;;;;;;;428.48;209.82;;;;;;;24.90;78.28;100605.75;5052945;28;20184;-83
2023/08/10 09:15:37;;;;;;;425.83;208.20;;;;;;;25.63;73.33;100597.09;5069263;28;20069;-83
2023/08/10 09:18:04;;;;;;;423.13;206.63;;;;;;;26.40;67.78;100601.44;5053049;28;20028;-86
2023/08/10 09:20:33;;;;;;;424.67;206.38;;;;;;;28.19;59.96;100580.41;5052298;28;20037;-85
2023/08/10 09:22:59;;;;;;;427.60;206.90;;;;;;;29.80;55.64;100604.00;5050119;28;20033;-86
2023/08/10 09:25:27;;;;;;;415.98;203.35;;;;;;;28.75;55.07;100596.16;5050487;28;20081;-86
2023/08/10 09:27:53;;;;;;;402.90;197.60;;;;;;;26.86;59.50;100593.72;5055812;28;20029;-86
2023/08/10 09:30:20;;;;;;;409.88;199.88;;;;;;;24.90;64.93;100552.63;5053818;28;20032;-84
2023/08/10 09:32:48;;;;;;;405.08;198.60;;;;;;;23.72;71.47;100557.91;5055637;28;20032;-85
2023/08/10 09:35:14;;;;;;;403.23;197.93;;;;;;;23.38;76.33;100596.69;5038646;28;20029;-85
2023/08/10 09:37:40;;;;;;;399.48;196.18;;;;;;;23.03;79.50;100591.78;5038115;28;20033;-86
2023/08/10 09:40:08;;;;;;;410.35;200.18;;;;;;;22.15;83.85;100592.00;5035034;28;20033;-87
2023/08/10 09:42:34;;;;;;;403.52;198.82;;;;;;;21.58;88.23;100581.44;5050192;28;20373;-87
2023/08/10 09:45:05;;;;;;;405.83;199.75;;;;;;;21.49;89.99;100586.53;5033579;28;20037;-86
2023/08/10 09:47:40;;;;;;;403.95;199.02;;;;;;;21.43;91.55;100587.50;5050200;28;20044;-87
2023/08/10 09:50:09;;;;;;;409.60;202.40;;;;;;;20.97;94.67;100573.97;5049790;28;20434;-87
2023/08/10 09:52:36;;;;;;;410.10;202.98;;;;;;;20.59;96.20;100561.06;5025000;28;20512;-87
2023/08/10 09:55:06;;;;;;;405.65;201.43;;;;;;;20.28;98.43;100552.28;5038414;28;20033;-87
2023/08/10 09:57:33;;;;;;;404.55;201.50;;;;;;;20.11;100.00;100556.84;5020960;28;20036;-87
2023/08/10 09:59:59;;;;;;;408.58;203.05;;;;;;;20.51;99.84;100575.91;5055051;28;20029;-85
2023/08/10 10:02:25;;;;;;;407.70;203.90;;;;;;;21.02;98.36;100587.72;5051902;28;20545;-86
2023/08/10 10:04:51;;;;;;;406.60;203.20;;;;;;;21.18;97.34;100571.56;5019236;28;20388;-87
2023/08/10 10:07:22;;;;;;;404.20;202.65;;;;;;;21.54;93.51;100531.88;5053195;28;20391;-87
2023/08/10 10:09:49;;;;;;;404.50;201.63;;;;;;;21.87;92.00;100532.81;5037423;28;20033;-87
2023/08/10 10:12:15;;;;;;;400.58;200.35;;;;;;;21.99;92.46;100576.47;5052076;28;20033;-87
2023/08/10 10:14:43;;;;;;;407.48;202.35;;;;;;;21.75;93.04;100568.50;5018873;28;20029;-87
2023/08/10 10:17:11;;;;;;;397.85;199.52;;;;;;;21.81;93.47;100588.59;5035380;28;20110;-87
2023/08/10 10:19:38;;;;;;;397.58;199.50;;;;;;;21.62;94.42;100561.53;5035524;28;20037;-87
2023/08/10 10:22:04;;;;;;;397.90;199.05;;;;;;;21.13;96.39;100558.63;5051979;28;20025;-86
2023/08/10 10:24:34;;;;;;;403.83;201.07;;;;;;;20.72;99.27;100565.34;5030377;28;20036;-87
2023/08/10 10:27:10;;;;;;;398.30;199.02;;;;;;;20.45;100.00;100546.81;5055662;28;20459;-86
2023/08/10 10:29:38;;;;;;;397.13;199.60;;;;;;;20.55;100.00;100571.63;5038930;28;20429;-86
2023/08/10 10:32:14;;;;;;;395.38;198.10;;;;;;;20.52;100.00;100536.59;5071784;28;20479;-87
2023/08/10 10:34:41;;;;;;;400.58;201.07;;;;;;;21.23;100.00;100563.44;5038503;28;20115;-87
2023/08/10 10:37:08;;;;;;;398.27;199.77;;;;;;;21.68;97.33;100515.91;5037967;28;20044;-86
2023/08/10 10:39:34;;;;;;;401.23;200.48;;;;;;;23.04;92.06;100533.91;5055244;28;20032;-87
2023/08/10 10:42:00;;;;;;;401.10;199.73;;;;;;;23.52;87.65;100549.56;5055160;28;20031;-86
2023/08/10 10:45:06;;;;;;;401.23;199.00;;;;;;;23.52;83.96;100500.16;5054608;28;20456;-86
2023/08/10 10:47:47;;;;;;;396.85;196.35;;;;;;;24.11;80.45;100525.38;5038900;28;20043;-86
2023/08/10 10:50:27;;;;;;;397.08;196.20;;;;;;;24.65;77.31;100515.00;5040645;28;20067;-87
2023/08/10 10:53:01;;;;;;;395.55;195.50;;;;;;;24.48;76.23;100507.84;5042084;28;20040;-86